Time;durP1;ratioP1;P1;durP2;ratioP2;P2;SDS_P1;SDS_P2;PMS_P1;PMS_P2;Temp;Humidity;BMP_temperature;BMP_pressure;BME280_temperature;BME280_humidity;BME280_pressure;Samples;Min_cycle;Max_cycle;Signal;HPM_P1;HPM_P2
2023/10/21 00:04:02;;;;;;;2.95;2.38;;;;;;;7.85;83.47;98748.47;15557494;28;20438;-51
2023/10/21 00:11:37;;;;;;;0.20;0.20;;;;;;;7.37;86.20;98771.09;15560452;28;20080;-49
2023/10/21 00:19:10;;;;;;;1.92;1.75;;;;;;;7.38;86.79;98748.69;15560245;28;20107;-48
2023/10/21 00:26:47;;;;;;;1.83;0.90;;;;;;;7.59;86.21;98755.22;15559914;28;20053;-51
2023/10/21 00:34:20;;;;;;;0.77;0.77;;;;;;;7.55;85.83;98748.72;15550952;28;20495;-49
2023/10/21 00:41:55;;;;;;;1.95;1.73;;;;;;;7.75;84.79;98755.50;15555027;28;20164;-48
2023/10/21 00:49:30;;;;;;;0.32;0.32;;;;;;;7.84;84.65;98780.75;15556115;28;20155;-49
2023/10/21 00:57:05;;;;;;;1.65;1.35;;;;;;;7.72;84.28;98801.38;15557380;28;20129;-49
2023/10/21 01:04:39;;;;;;;2.42;0.57;;;;;;;7.53;85.37;98804.22;15556106;28;20042;-50
2023/10/21 01:12:15;;;;;;;0.70;0.70;;;;;;;7.93;83.77;98779.31;15556096;28;20037;-51
2023/10/21 01:19:48;;;;;;;1.40;0.80;;;;;;;7.79;84.09;98784.16;15553009;28;20058;-52
2023/10/21 01:27:23;;;;;;;2.50;0.70;;;;;;;7.65;85.17;98783.63;15553883;28;20034;-48
2023/10/21 01:34:56;;;;;;;0.95;0.95;;;;;;;8.14;83.28;98791.97;15553755;28;20041;-50
2023/10/21 01:42:32;;;;;;;0.00;0.00;;;;;;;8.17;82.94;98802.19;15537768;28;20045;-51
2023/10/21 01:50:07;;;;;;;1.65;1.23;;;;;;;7.92;83.49;98789.16;15553391;28;20570;-51
2023/10/21 01:57:42;;;;;;;0.98;0.50;;;;;;;7.91;83.74;98786.75;15553867;28;20046;-52
2023/10/21 02:05:15;;;;;;;0.30;0.30;;;;;;;7.94;83.90;98786.28;15552422;28;20046;-51
2023/10/21 02:12:51;;;;;;;1.13;0.82;;;;;;;8.05;83.47;98787.25;15554539;28;20510;-52
2023/10/21 02:20:24;;;;;;;0.40;0.40;;;;;;;8.04;83.76;98815.84;15552280;28;20046;-51
2023/10/21 02:27:58;;;;;;;0.20;0.20;;;;;;;7.87;84.40;98829.16;15535296;28;20053;-51
2023/10/21 02:35:33;;;;;;;1.90;1.13;;;;;;;8.05;84.30;98838.81;15550067;28;20050;-52
2023/10/21 02:43:09;;;;;;;4.25;2.33;;;;;;;8.10;84.03;98851.47;15543659;28;20205;-50
2023/10/21 02:50:42;;;;;;;0.08;0.08;;;;;;;8.29;83.27;98844.84;15553058;28;20049;-52
2023/10/21 02:58:17;;;;;;;;;;;;;;;8.12;84.48;98850.19;15551201;28;20088;-48
2023/10/21 03:05:50;;;;;;;1.33;0.95;;;;;;;7.92;85.67;98860.50;15549840;28;20414;-50
2023/10/21 03:13:26;;;;;;;0.20;0.20;;;;;;;7.72;85.80;98866.25;15549533;28;20046;-50
2023/10/21 03:20:59;;;;;;;2.63;2.05;;;;;;;7.60;87.39;98858.31;15550979;28;20470;-50
2023/10/21 03:28:34;;;;;;;0.03;0.03;;;;;;;7.79;86.89;98871.47;15550738;28;20194;-51
2023/10/21 03:36:08;;;;;;;1.90;1.70;;;;;;;7.68;87.67;98884.63;15543062;28;20038;-51
2023/10/21 03:43:44;;;;;;;0.98;0.90;;;;;;;7.83;86.71;98868.09;15549347;28;20046;-50
2023/10/21 03:51:18;;;;;;;0.52;0.52;;;;;;;7.67;86.70;98845.63;15558622;28;20406;-49
2023/10/21 03:58:52;;;;;;;0.95;0.43;;;;;;;7.71;87.40;98855.84;15559822;28;20046;-50
2023/10/21 04:06:25;;;;;;;2.63;0.75;;;;;;;7.87;86.55;98871.88;15559997;28;20069;-52
2023/10/21 04:14:00;;;;;;;0.77;0.77;;;;;;;7.48;87.70;98891.41;15560735;28;20391;-53
2023/10/21 04:21:33;;;;;;;0.03;0.03;;;;;;;7.97;86.89;98881.94;15542178;28;20042;-50
2023/10/21 04:29:09;;;;;;;2.58;1.45;;;;;;;8.12;85.28;98892.94;15559404;28;20053;-51
2023/10/21 04:36:45;;;;;;;0.32;0.32;;;;;;;8.16;85.45;98894.09;15560116;28;20073;-50
2023/10/21 04:44:20;;;;;;;;;;;;;;;8.25;85.09;98910.53;15559942;28;20050;-49
2023/10/21 04:51:57;;;;;;;0.77;0.50;;;;;;;7.85;86.37;98899.91;15561438;28;20317;-51
2023/10/21 04:59:31;;;;;;;0.00;0.00;;;;;;;8.05;86.30;98894.13;15568243;28;20392;-51
2023/10/21 05:07:05;;;;;;;0.55;0.55;;;;;;;7.91;86.18;98877.56;15559741;28;20522;-49
2023/10/21 05:14:39;;;;;;;2.90;1.50;;;;;;;7.91;86.99;98917.66;15559313;28;20281;-50
2023/10/21 05:22:12;;;;;;;0.13;0.13;;;;;;;8.25;85.17;98899.84;15555415;28;20058;-53
2023/10/21 05:29:47;;;;;;;;;;;;;;;8.14;85.87;98901.53;15558288;28;20473;-49
2023/10/21 05:37:20;;;;;;;0.45;0.45;;;;;;;7.99;86.33;98924.47;15557507;28;19926;-53
2023/10/21 05:44:55;;;;;;;1.98;1.88;;;;;;;7.80;87.48;98955.91;15541073;28;20053;-50
2023/10/21 05:52:28;;;;;;;1.17;1.08;;;;;;;8.13;86.16;98955.22;15557575;28;20068;-51
2023/10/21 06:00:03;;;;;;;;;;;;;;;8.17;86.00;98962.53;15573725;28;20495;-51
2023/10/21 06:07:40;;;;;;;0.45;0.45;;;;;;;8.22;85.52;98961.81;15564940;28;19968;-51
2023/10/21 06:15:14;;;;;;;;;;;;;;;7.82;86.76;98967.94;15539370;28;20068;-51
2023/10/21 06:22:48;;;;;;;0.08;0.08;;;;;;;8.43;85.75;98973.72;15554320;28;19949;-49
2023/10/21 06:30:23;;;;;;;0.43;0.43;;;;;;;8.12;86.91;98983.00;15563796;28;20056;-51
2023/10/21 06:37:56;;;;;;;0.17;0.17;;;;;;;8.40;86.63;98984.91;15555911;28;20146;-51
2023/10/21 06:45:32;;;;;;;9.57;0.98;;;;;;;8.48;85.21;98986.34;15559943;28;20053;-51
2023/10/21 06:53:05;;;;;;;0.47;0.47;;;;;;;8.60;85.48;99006.66;15558335;28;20053;-51
2023/10/21 07:00:41;;;;;;;0.10;0.10;;;;;;;8.76;85.38;99020.28;15555121;28;20046;-50
2023/10/21 07:08:14;;;;;;;0.15;0.15;;;;;;;8.65;85.94;99017.44;15552880;28;20038;-51
2023/10/21 07:15:51;;;;;;;;;;;;;;;8.95;85.13;99032.41;15552442;28;20085;-52
2023/10/21 07:23:24;;;;;;;1.63;1.45;;;;;;;9.09;85.24;99036.41;15572071;28;19925;-51
2023/10/21 07:31:00;;;;;;;0.00;0.00;;;;;;;9.19;84.94;99036.56;15566979;28;20053;-51
2023/10/21 07:38:33;;;;;;;0.05;0.05;;;;;;;9.62;83.87;99045.00;15592180;28;20096;-52
2023/10/21 07:46:08;;;;;;;0.00;0.00;;;;;;;9.58;84.51;99054.56;15580208;28;20088;-51
2023/10/21 07:53:41;;;;;;;0.25;0.25;;;;;;;9.80;84.74;99058.13;15568726;28;20050;-52
2023/10/21 08:01:16;;;;;;;0.50;0.50;;;;;;;10.46;83.17;99069.72;15570712;28;20081;-51
2023/10/21 08:08:49;;;;;;;0.10;0.10;;;;;;;10.42;82.89;99076.66;15566378;28;20590;-51
2023/10/21 08:16:24;;;;;;;0.17;0.17;;;;;;;10.36;82.91;99085.72;15564189;28;20049;-51
2023/10/21 08:23:57;;;;;;;0.35;0.35;;;;;;;10.53;83.20;99095.56;15561356;28;20048;-50
2023/10/21 08:31:32;;;;;;;1.63;0.73;;;;;;;11.02;82.10;99095.56;15565305;28;20053;-53
2023/10/21 08:39:07;;;;;;;1.52;0.82;;;;;;;11.18;81.88;99114.25;15560104;28;20152;-49
2023/10/21 08:46:42;;;;;;;0.75;0.75;;;;;;;12.66;79.13;99115.28;15559226;28;20061;-51
2023/10/21 08:54:18;;;;;;;0.13;0.13;;;;;;;12.59;77.08;99132.72;15560255;28;20042;-51
2023/10/21 09:01:52;;;;;;;0.05;0.05;;;;;;;12.18;79.42;99148.69;15560038;28;20395;-52
2023/10/21 09:09:27;;;;;;;0.28;0.28;;;;;;;12.29;79.80;99134.19;15559842;28;20050;-52
2023/10/21 09:17:02;;;;;;;1.65;1.25;;;;;;;12.66;78.56;99147.56;15559057;28;20034;-51
2023/10/21 09:24:35;;;;;;;0.85;0.20;;;;;;;12.73;78.29;99158.13;15558219;28;20069;-52
2023/10/21 09:32:11;;;;;;;0.17;0.17;;;;;;;12.27;79.52;99122.09;15555208;28;20056;-51
2023/10/21 09:39:45;;;;;;;0.47;0.47;;;;;;;12.71;79.46;99166.44;15556683;28;20072;-51
2023/10/21 09:47:21;;;;;;;0.20;0.20;;;;;;;13.02;78.78;99123.47;15574969;28;20033;-52
2023/10/21 09:55:03;;;;;;;0.70;0.70;;;;;;;14.42;75.89;99157.19;15555727;28;20521;-53
2023/10/21 10:02:37;;;;;;;0.03;0.03;;;;;;;14.69;75.78;99181.16;15568143;28;20120;-52
2023/10/21 10:10:13;;;;;;;4.45;0.63;;;;;;;15.57;73.11;99190.44;15571550;28;20124;-51
2023/10/21 10:17:51;;;;;;;0.03;0.03;;;;;;;15.08;75.17;99193.16;15573224;28;20030;-51
2023/10/21 10:25:26;;;;;;;0.10;0.10;;;;;;;15.61;73.55;99204.22;15561706;28;20076;-51
2023/10/21 10:33:12;;;;;;;0.00;0.00;;;;;;;17.03;71.00;99197.47;15560148;28;20533;-49
2023/10/21 10:40:48;;;;;;;0.00;0.00;;;;;;;17.87;65.52;99198.78;15617317;23;20079;-55
2023/10/21 10:48:29;;;;;;;0.00;0.00;;;;;;;18.45;62.51;99212.69;15597324;28;20076;-52
2023/10/21 10:56:02;;;;;;;0.22;0.17;;;;;;;18.54;62.24;99227.19;15568407;28;20485;-51
2023/10/21 11:03:36;;;;;;;0.00;0.00;;;;;;;19.26;59.51;99247.59;15606559;28;20042;-52
2023/10/21 11:11:10;;;;;;;0.00;0.00;;;;;;;17.81;62.07;99269.44;15595679;28;20076;-53
2023/10/21 11:18:45;;;;;;;0.00;0.00;;;;;;;18.44;61.17;99283.66;15617177;28;20068;-53
2023/10/21 11:26:22;;;;;;;0.00;0.00;;;;;;;18.45;59.20;99290.69;15649873;28;20065;-51
2023/10/21 11:34:06;;;;;;;0.00;0.00;;;;;;;18.32;60.30;99325.66;15633366;28;20502;-50
2023/10/21 11:41:43;;;;;;;0.00;0.00;;;;;;;18.26;60.43;99323.31;15581797;28;20144;-51
2023/10/21 11:49:19;;;;;;;0.00;0.00;;;;;;;17.85;60.13;99346.44;15563317;28;20124;-57
2023/10/21 11:57:25;;;;;;;0.00;0.00;;;;;;;18.05;59.42;99361.66;15561916;28;20256;-54
2023/10/21 12:21:43;;;;;;;0.00;0.00;;;;;;;20.00;55.27;99388.94;15529305;28;20526;-56
2023/10/21 12:37:30;;;;;;;0.00;0.00;;;;;;;20.30;53.29;99410.06;15529814;28;20038;-55
2023/10/21 12:45:11;;;;;;;0.00;0.00;;;;;;;20.66;53.07;99416.63;15590182;28;20505;-57
2023/10/21 12:52:47;;;;;;;0.00;0.00;;;;;;;21.00;52.44;99427.00;15573422;28;20049;-51
2023/10/21 13:00:21;;;;;;;0.10;0.00;;;;;;;21.38;50.91;99439.09;15584765;28;20160;-55
2023/10/21 13:07:56;;;;;;;0.00;0.00;;;;;;;21.03;51.68;99451.72;15588512;28;20068;-54
2023/10/21 13:15:29;;;;;;;1.20;0.47;;;;;;;20.84;52.48;99470.19;15567463;28;20052;-53
2023/10/21 13:23:04;;;;;;;0.13;0.10;;;;;;;19.56;55.17;99493.81;15585483;28;20042;-51
2023/10/21 13:30:38;;;;;;;0.90;0.40;;;;;;;19.80;55.20;99491.75;15576343;28;20048;-56
2023/10/21 13:38:13;;;;;;;0.00;0.00;;;;;;;19.91;54.46;99506.00;15553419;28;20132;-56
2023/10/21 13:45:47;;;;;;;0.00;0.00;;;;;;;19.98;54.60;99506.38;15593766;28;20052;-53
2023/10/21 13:53:25;;;;;;;0.00;0.00;;;;;;;19.53;55.00;99516.97;15586571;28;20504;-54
2023/10/21 14:01:00;;;;;;;0.00;0.00;;;;;;;19.54;54.35;99542.31;15584739;28;20057;-50
2023/10/21 14:08:34;;;;;;;0.00;0.00;;;;;;;19.25;55.43;99553.38;15590790;28;20117;-51
2023/10/21 14:16:11;;;;;;;0.00;0.00;;;;;;;19.37;53.58;99551.03;15576443;28;20045;-52
2023/10/21 14:23:46;;;;;;;0.00;0.00;;;;;;;19.21;54.29;99553.19;15573410;28;20092;-50
2023/10/21 14:31:27;;;;;;;0.00;0.00;;;;;;;19.31;54.05;99560.38;15585535;28;20046;-48
2023/10/21 14:39:01;;;;;;;0.00;0.00;;;;;;;19.17;54.60;99568.47;15572572;28;20041;-53
2023/10/21 14:46:36;;;;;;;0.00;0.00;;;;;;;18.77;54.78;99578.84;15571114;28;20129;-50
2023/10/21 14:54:10;;;;;;;0.00;0.00;;;;;;;18.69;54.97;99587.63;15598230;28;20390;-52
2023/10/21 15:01:43;;;;;;;0.28;0.10;;;;;;;18.19;55.09;99591.78;15583763;28;20115;-52
2023/10/21 15:09:19;;;;;;;0.00;0.00;;;;;;;18.32;54.55;99599.22;15578325;28;20100;-52
2023/10/21 15:16:52;;;;;;;0.00;0.00;;;;;;;18.09;54.27;99627.97;15599917;28;20049;-48
2023/10/21 15:24:27;;;;;;;0.00;0.00;;;;;;;17.97;55.06;99624.84;15575991;28;20053;-51
2023/10/21 15:32:00;;;;;;;0.13;0.10;;;;;;;17.72;55.49;99642.97;15605478;28;20088;-49
2023/10/21 15:39:35;;;;;;;0.08;0.08;;;;;;;17.97;54.72;99639.22;15583889;28;20045;-48
2023/10/21 15:47:09;;;;;;;1.77;0.52;;;;;;;18.00;55.68;99648.69;15617342;28;20113;-50
2023/10/21 15:54:44;;;;;;;0.20;0.20;;;;;;;17.97;56.33;99665.59;15612772;28;20041;-49
2023/10/21 16:02:18;;;;;;;0.00;0.00;;;;;;;17.49;58.06;99679.78;15581711;28;20049;-47
2023/10/21 16:09:53;;;;;;;1.00;0.65;;;;;;;16.78;59.88;99705.31;15613949;28;20049;-52
2023/10/21 16:17:26;;;;;;;0.00;0.00;;;;;;;16.47;61.49;99712.72;15603540;28;20259;-49
2023/10/21 16:25:00;;;;;;;0.00;0.00;;;;;;;16.02;62.96;99722.50;15613544;28;20049;-52
2023/10/21 16:32:34;;;;;;;9.32;2.08;;;;;;;15.74;62.52;99726.56;15614242;28;20041;-46
2023/10/21 16:40:10;;;;;;;2.10;0.65;;;;;;;15.82;61.36;99746.88;15609070;28;20049;-51
2023/10/21 16:47:44;;;;;;;1.08;0.20;;;;;;;15.96;61.59;99747.16;15611859;28;20037;-52
2023/10/21 16:55:20;;;;;;;0.00;0.00;;;;;;;16.03;60.80;99745.78;15580179;28;20221;-50
2023/10/21 17:02:54;;;;;;;0.10;0.10;;;;;;;15.41;62.61;99735.13;15584191;28;20044;-49
2023/10/21 17:10:29;;;;;;;0.10;0.10;;;;;;;15.36;62.62;99740.53;15569269;28;20037;-52
2023/10/21 17:18:03;;;;;;;0.10;0.10;;;;;;;15.15;63.41;99742.34;15572621;28;20059;-48
2023/10/21 17:25:37;;;;;;;0.25;0.25;;;;;;;14.99;63.34;99782.00;15588566;28;20052;-54
2023/10/21 17:33:10;;;;;;;0.43;0.30;;;;;;;14.63;64.49;99792.59;15560634;28;20104;-52
2023/10/21 17:40:48;;;;;;;0.08;0.08;;;;;;;14.30;65.37;99802.59;15584031;28;20049;-51
2023/10/21 17:48:22;;;;;;;2.55;1.45;;;;;;;13.99;65.81;99806.91;15584746;28;20052;-52
2023/10/21 17:55:58;;;;;;;0.10;0.10;;;;;;;13.79;66.49;99826.38;15584984;28;20140;-52
2023/10/21 18:03:32;;;;;;;0.55;0.50;;;;;;;13.82;66.41;99852.06;15581468;28;20046;-49
2023/10/21 18:11:08;;;;;;;0.15;0.15;;;;;;;14.08;65.26;99857.69;15574231;28;20121;-48
2023/10/21 18:18:42;;;;;;;0.15;0.13;;;;;;;14.13;65.05;99855.88;15565721;28;20049;-49
2023/10/21 18:26:17;;;;;;;0.00;0.00;;;;;;;14.00;65.19;99867.09;15572854;28;20134;-54
2023/10/21 18:33:51;;;;;;;0.08;0.08;;;;;;;13.72;65.59;99890.53;15580415;28;20426;-53
2023/10/21 18:41:25;;;;;;;0.77;0.57;;;;;;;13.74;65.54;99909.94;15567788;28;20037;-55
2023/10/21 18:48:59;;;;;;;1.08;0.68;;;;;;;13.67;65.60;99930.91;15573301;28;20457;-54
2023/10/21 18:56:35;;;;;;;0.00;0.00;;;;;;;13.86;65.30;99947.59;15567006;28;20045;-50
2023/10/21 19:04:08;;;;;;;0.47;0.47;;;;;;;13.71;65.78;99952.81;15579985;28;20514;-49
2023/10/21 19:11:43;;;;;;;;;;;;;;;13.50;66.01;99971.38;15572404;28;20108;-48
2023/10/21 19:19:16;;;;;;;0.13;0.13;;;;;;;13.16;67.54;99984.06;15553471;28;19976;-51
2023/10/21 19:26:51;;;;;;;0.20;0.20;;;;;;;12.99;68.02;99996.72;15584386;28;20085;-50
2023/10/21 19:34:24;;;;;;;0.00;0.00;;;;;;;12.84;68.37;100012.63;15585718;28;20053;-47
2023/10/21 19:41:58;;;;;;;0.00;0.00;;;;;;;12.84;68.18;100015.31;15587702;28;20050;-50
2023/10/21 19:49:32;;;;;;;0.05;0.05;;;;;;;12.73;68.56;100019.72;15589015;28;20442;-48
2023/10/21 19:57:07;;;;;;;1.35;0.65;;;;;;;12.57;69.32;100015.09;15593689;28;20037;-51
2023/10/21 20:04:42;;;;;;;0.30;0.20;;;;;;;12.44;69.51;100008.13;15586331;28;20088;-47
2023/10/21 20:12:17;;;;;;;0.22;0.22;;;;;;;12.25;69.71;100016.38;15556836;28;20042;-47
2023/10/21 20:19:50;;;;;;;0.00;0.00;;;;;;;12.14;70.24;100014.53;15591850;28;20138;-47
2023/10/21 20:27:25;;;;;;;;;;;;;;;12.13;70.24;100015.59;15560512;28;20176;-48
2023/10/21 20:34:58;;;;;;;0.20;0.17;;;;;;;12.11;71.19;100016.88;15572653;28;19921;-47
2023/10/21 20:42:33;;;;;;;0.10;0.10;;;;;;;12.17;70.86;100005.16;15579661;28;20482;-50
2023/10/21 20:50:07;;;;;;;0.35;0.22;;;;;;;12.22;71.29;99994.53;15591228;28;20467;-47
2023/10/21 20:57:41;;;;;;;0.93;0.43;;;;;;;12.33;70.90;99992.84;15584155;28;20050;-49
2023/10/21 21:05:15;;;;;;;0.00;0.00;;;;;;;12.44;71.47;99987.41;15587373;28;20042;-48
2023/10/21 21:12:51;;;;;;;0.32;0.28;;;;;;;12.47;71.92;99975.34;15586454;28;20090;-48
2023/10/21 21:20:24;;;;;;;0.10;0.10;;;;;;;12.51;71.65;100008.81;15584547;28;20046;-50
2023/10/21 21:27:58;;;;;;;0.20;0.20;;;;;;;12.44;72.23;100018.88;15581786;28;20053;-47
2023/10/21 21:35:32;;;;;;;0.32;0.32;;;;;;;12.44;72.68;100016.19;15588954;28;20130;-49
2023/10/21 21:43:08;;;;;;;0.68;0.68;;;;;;;12.44;72.63;100002.75;15563182;28;20068;-48
2023/10/21 21:50:41;;;;;;;0.10;0.10;;;;;;;12.40;72.55;100023.94;15580167;28;20069;-45
2023/10/21 21:58:15;;;;;;;;;;;;;;;11.91;74.18;100012.72;15584158;28;20045;-51
2023/10/21 22:05:52;;;;;;;0.20;0.20;;;;;;;11.88;74.73;100018.56;15598294;28;19921;-52
2023/10/21 22:13:26;;;;;;;0.20;0.20;;;;;;;12.63;73.12;100014.13;15574342;28;20038;-50
2023/10/21 22:21:02;;;;;;;0.35;0.35;;;;;;;12.77;72.66;100010.88;15590793;28;20103;-46
2023/10/21 22:28:37;;;;;;;0.00;0.00;;;;;;;12.69;72.97;100005.91;15569749;28;20133;-48
2023/10/21 22:36:10;;;;;;;0.10;0.10;;;;;;;12.69;72.93;100014.00;15610385;23;20048;-46
2023/10/21 22:43:45;;;;;;;;;;;;;;;12.68;72.60;100014.22;15667481;28;20555;-48
2023/10/21 22:51:18;;;;;;;0.10;0.10;;;;;;;12.80;73.23;100023.06;15671291;28;20028;-48
2023/10/21 22:58:52;;;;;;;0.00;0.00;;;;;;;12.82;73.24;100023.63;15699689;28;20063;-51
2023/10/21 23:06:25;;;;;;;0.00;0.00;;;;;;;12.67;73.41;100032.25;15679964;28;20052;-49
2023/10/21 23:14:03;;;;;;;0.00;0.00;;;;;;;12.80;73.39;100041.09;15693012;28;20060;-50
2023/10/21 23:21:36;;;;;;;0.40;0.28;;;;;;;12.80;73.71;100041.09;15686287;28;20048;-50
2023/10/21 23:29:11;;;;;;;;;;;;;;;12.75;73.52;100045.31;15681634;28;20044;-50
2023/10/21 23:36:47;;;;;;;0.00;0.00;;;;;;;12.45;74.39;100060.88;15680355;28;19971;-52
2023/10/21 23:44:21;;;;;;;0.08;0.08;;;;;;;12.79;74.01;100050.25;15673892;28;20056;-51
2023/10/21 23:51:54;;;;;;;0.55;0.55;;;;;;;12.77;74.18;100053.97;15682949;28;20052;-50
2023/10/21 23:59:28;;;;;;;0.55;0.55;;;;;;;12.84;74.11;100070.00;15670070;28;20044;-49
